Reedsburg, Wisconsin
Current Conditions -  °F | °C
As of 12:55 PM on Friday 24 Oct 2014 (Local Time) from KC35 Reporting Station
Overcast Overcast  
Wind Chill: 54°   Ceiling: 900
Heat Index: 54°   Visibility: 10mi
Dew Point: 51°   Wind: 7mph
Humidity: 89%   Direction: 190°S
Pressure: 29.98"   Gusts: NA
Location:  43.53°N, 90°W
Report Text: KC35 241755Z AUTO 19006KT 10SM OVC009 12/10 A2998 RMK AO2 T01200103 10123 20076
Loading
Personal Weather Stations






























Interactive Weather Map
Tropical Storm Tracking
New forecast layout! Learn more

10-Day Weather Forecast

Advertisements
Track Severe Weather on mobile